createdAt,value
2023-04-19T00:02:49.325Z,8.90
2023-04-19T00:07:52.747Z,8.69
2023-04-19T00:12:54.669Z,8.60
2023-04-19T00:17:56.716Z,8.65
2023-04-19T00:23:00.103Z,8.56
2023-04-19T00:28:02.159Z,8.45
2023-04-19T00:33:04.192Z,8.54
2023-04-19T00:38:07.735Z,8.48
2023-04-19T00:43:09.675Z,8.60
2023-04-19T00:48:12.210Z,8.53
2023-04-19T00:53:15.987Z,8.26
2023-04-19T00:58:18.134Z,8.28
2023-04-19T01:03:20.599Z,8.33
2023-04-19T01:08:24.298Z,8.06
2023-04-19T01:13:27.941Z,8.07
2023-04-19T01:18:35.603Z,8.15
2023-04-19T01:23:39.413Z,8.17
2023-04-19T01:28:41.368Z,8.25
2023-04-19T01:33:43.402Z,8.10
2023-04-19T01:38:47.776Z,8.02
2023-04-19T01:43:49.779Z,8.15
2023-04-19T01:48:51.741Z,8.17
2023-04-19T01:53:55.205Z,8.32
2023-04-19T01:58:57.213Z,8.43
2023-04-19T02:03:59.630Z,8.21
2023-04-19T02:09:03.252Z,8.43
2023-04-19T02:14:05.217Z,8.32
2023-04-19T02:19:07.510Z,8.14
2023-04-19T02:24:10.919Z,8.41
2023-04-19T02:29:13.010Z,8.30
2023-04-19T02:34:15.225Z,8.45
2023-04-19T02:39:18.822Z,8.03
2023-04-19T02:44:20.765Z,8.01
2023-04-19T02:49:22.735Z,8.21
2023-04-19T02:54:26.162Z,8.30
2023-04-19T02:59:28.083Z,8.22
2023-04-19T03:04:31.342Z,8.11
2023-04-19T03:09:34.712Z,8.02
2023-04-19T03:14:36.777Z,8.06
2023-04-19T03:19:38.776Z,8.19
2023-04-19T03:24:42.070Z,8.04
2023-04-19T03:29:44.005Z,8.05
2023-04-19T03:34:46.027Z,8.10
2023-04-19T03:39:49.310Z,8.17
2023-04-19T03:44:51.314Z,8.29
2023-04-19T03:49:53.356Z,8.41
2023-04-19T03:54:56.676Z,8.54
2023-04-19T03:59:58.664Z,8.38
2023-04-19T04:05:01.060Z,8.41
2023-04-19T04:10:05.467Z,8.21
2023-04-19T04:15:08.801Z,8.09
2023-04-19T04:20:13.381Z,8.07
2023-04-19T04:25:16.718Z,7.99
2023-04-19T04:30:18.691Z,7.98
2023-04-19T04:35:20.719Z,7.89
2023-04-19T04:40:24.118Z,7.86
2023-04-19T04:45:26.432Z,7.91
2023-04-19T04:50:28.566Z,7.88
2023-04-19T04:55:31.950Z,7.96
2023-04-19T05:00:34.364Z,7.95
2023-04-19T05:05:36.541Z,7.95
2023-04-19T05:10:39.986Z,7.83
2023-04-19T05:15:41.944Z,7.89
2023-04-19T05:20:43.993Z,7.88
2023-04-19T05:25:47.661Z,7.88
2023-04-19T05:30:49.639Z,7.86
2023-04-19T05:35:51.590Z,7.81
2023-04-19T05:40:54.893Z,7.75
2023-04-19T05:45:56.984Z,7.80
2023-04-19T05:50:59.658Z,7.61
2023-04-19T05:56:03.367Z,7.48
2023-04-19T06:01:06.893Z,6.93
2023-04-19T06:06:09.113Z,5.72
2023-04-19T06:11:23.354Z,5.46
2023-04-19T06:16:28.899Z,5.46
2023-04-19T06:21:31.711Z,5.59
2023-04-19T06:26:35.088Z,5.69
2023-04-19T06:31:37.074Z,6.03
2023-04-19T06:36:39.122Z,6.16
2023-04-19T06:41:42.440Z,6.50
2023-04-19T06:46:44.298Z,6.67
2023-04-19T06:51:46.753Z,6.81
2023-04-19T06:56:50.387Z,6.83
2023-04-19T07:01:52.377Z,6.69
2023-04-19T07:06:54.336Z,6.80
2023-04-19T07:11:57.639Z,7.08
2023-04-19T07:16:59.579Z,7.29
2023-04-19T07:22:03.314Z,7.29
2023-04-19T07:27:06.598Z,7.06
2023-04-19T07:32:08.766Z,7.31
2023-04-19T07:37:11.087Z,7.44
2023-04-19T07:42:14.395Z,7.54
2023-04-19T07:47:16.434Z,7.66
2023-04-19T07:52:18.472Z,7.58
2023-04-19T07:57:21.749Z,7.65
2023-04-19T08:02:25.020Z,7.46
2023-04-19T08:07:27.091Z,7.30
2023-04-19T08:12:37.314Z,7.15
2023-04-19T08:17:44.989Z,6.77
2023-04-19T08:22:47.817Z,6.74
2023-04-19T08:27:51.141Z,6.90
2023-04-19T08:32:55.433Z,7.15
2023-04-19T08:37:59.041Z,7.14
2023-04-19T08:43:05.508Z,6.74
2023-04-19T08:48:10.298Z,6.65
2023-04-19T08:58:28.419Z,6.41
2023-04-19T09:03:44.201Z,6.46
2023-04-19T09:08:51.202Z,6.61
2023-04-19T09:14:07.761Z,6.59
2023-04-19T09:19:23.393Z,6.66
2023-04-19T09:29:52.992Z,6.61
2023-04-19T09:34:56.107Z,6.66
2023-04-19T09:39:58.095Z,6.63
2023-04-19T09:45:28.297Z,6.53
2023-04-19T09:50:27.325Z,6.53
2023-04-19T09:55:38.361Z,6.62
2023-04-19T10:00:55.020Z,6.92
2023-04-19T10:06:10.740Z,6.75
2023-04-19T10:11:17.575Z,6.66
2023-04-19T10:16:21.118Z,6.69
2023-04-19T10:21:24.104Z,6.78
2023-04-19T10:26:26.496Z,6.79
2023-04-19T10:31:30.195Z,6.91
2023-04-19T10:36:32.235Z,6.84
2023-04-19T10:41:59.484Z,6.71
2023-04-19T10:47:05.800Z,6.45
2023-04-19T10:52:26.790Z,6.57
2023-04-19T10:57:28.777Z,6.65
2023-04-19T11:02:33.659Z,6.90
2023-04-19T11:07:39.908Z,7.01
2023-04-19T11:12:42.852Z,7.02
2023-04-19T11:17:57.988Z,7.04
2023-04-19T11:23:16.376Z,7.24
2023-04-19T11:28:18.602Z,7.46
2023-04-19T11:33:25.714Z,7.68
2023-04-19T11:38:27.792Z,7.44
2023-04-19T11:43:33.439Z,7.38
2023-04-19T11:48:37.250Z,7.22
2023-04-19T11:53:40.196Z,7.23
2023-04-19T11:58:48.702Z,7.21
2023-04-19T12:03:54.030Z,7.17
2023-04-19T12:08:56.799Z,6.58
2023-04-19T12:14:08.750Z,6.42
2023-04-19T12:19:17.412Z,6.25
2023-04-19T12:24:20.207Z,5.84
2023-04-19T12:29:22.189Z,5.77
2023-04-19T12:34:25.716Z,5.61
2023-04-19T12:39:28.657Z,5.52
2023-04-19T12:44:30.614Z,5.52
2023-04-19T12:49:34.105Z,5.47
2023-04-19T12:54:36.067Z,5.48
2023-04-19T12:59:38.034Z,5.36
2023-04-19T13:04:41.424Z,5.44
2023-04-19T13:09:43.649Z,5.34
2023-04-19T13:14:49.963Z,5.27
2023-04-19T13:19:53.325Z,5.23
2023-04-19T13:24:55.266Z,5.22
2023-04-19T13:29:57.381Z,5.28
2023-04-19T13:35:01.078Z,5.31
2023-04-19T13:40:17.517Z,5.35
2023-04-19T13:45:20.620Z,5.28
2023-04-19T13:50:23.902Z,5.19
2023-04-19T13:55:26.696Z,5.33
2023-04-19T14:00:28.784Z,5.29
2023-04-19T14:05:32.147Z,5.25
2023-04-19T14:10:34.307Z,5.22
2023-04-19T14:15:36.300Z,5.29
2023-04-19T14:20:39.669Z,5.34
2023-04-19T14:25:41.684Z,5.24
2023-04-19T14:30:43.633Z,5.26
2023-04-19T14:35:47.117Z,5.30
2023-04-19T14:40:48.973Z,5.36
2023-04-19T14:45:51.487Z,5.30
2023-04-19T14:50:55.721Z,5.26
2023-04-19T14:55:57.742Z,5.28
2023-04-19T15:00:59.893Z,5.24
2023-04-19T15:06:04.444Z,5.27
2023-04-19T15:11:07.008Z,5.19
2023-04-19T15:16:09.176Z,5.22
2023-04-19T15:21:12.810Z,5.15
2023-04-19T15:26:15.317Z,5.08
2023-04-19T15:31:17.575Z,5.08
2023-04-19T15:36:21.341Z,5.01
2023-04-19T15:41:23.444Z,4.94
2023-04-19T15:46:25.613Z,4.95
2023-04-19T15:51:28.985Z,4.92
2023-04-19T15:56:31.247Z,4.87
2023-04-19T16:01:33.380Z,4.81
2023-04-19T16:06:36.702Z,4.82
2023-04-19T16:11:39.213Z,4.66
2023-04-19T16:16:42.249Z,4.65
2023-04-19T16:21:45.609Z,4.63
2023-04-19T16:26:48.042Z,4.66
2023-04-19T16:31:52.140Z,4.77
2023-04-19T16:36:55.951Z,4.75
2023-04-19T16:41:58.389Z,4.71
2023-04-19T16:47:00.404Z,4.58
2023-04-19T16:52:03.776Z,4.50
2023-04-19T16:57:05.760Z,4.61
2023-04-19T17:02:09.242Z,4.69
2023-04-19T17:07:12.672Z,4.61
2023-04-19T17:12:14.728Z,4.62
2023-04-19T17:17:20.105Z,4.46
2023-04-19T17:22:23.488Z,4.49
2023-04-19T17:27:25.832Z,4.36
2023-04-19T17:32:27.880Z,4.44
2023-04-19T17:37:31.431Z,4.36
2023-04-19T17:42:33.442Z,4.32
2023-04-19T17:47:35.440Z,4.36
2023-04-19T17:52:38.804Z,4.31
2023-04-19T17:57:40.798Z,4.39
2023-04-19T18:02:43.264Z,4.40
2023-04-19T18:07:46.800Z,4.49
2023-04-19T18:12:48.844Z,4.52
2023-04-19T18:17:51.042Z,4.44
2023-04-19T18:22:54.396Z,4.58
2023-04-19T18:27:56.478Z,4.64
2023-04-19T18:32:58.932Z,4.69
2023-04-19T18:38:02.371Z,4.86
2023-04-19T18:43:04.533Z,4.77
2023-04-19T18:48:07.026Z,4.85
2023-04-19T18:53:10.469Z,4.73
2023-04-19T18:58:12.402Z,4.75
2023-04-19T19:03:38.167Z,4.68
2023-04-19T19:08:37.774Z,4.69
2023-04-19T19:13:39.770Z,4.78
2023-04-19T19:18:41.693Z,4.62
2023-04-19T19:23:45.144Z,4.69
2023-04-19T19:28:47.306Z,4.86
2023-04-19T19:33:57.033Z,4.68
2023-04-19T19:39:12.698Z,4.67
2023-04-19T19:44:14.702Z,4.76
2023-04-19T19:49:16.929Z,4.72
2023-04-19T19:54:21.791Z,4.85
2023-04-19T19:59:29.459Z,4.83
2023-04-19T20:04:34.984Z,4.82
2023-04-19T20:09:38.647Z,4.85
2023-04-19T20:14:40.688Z,5.01
2023-04-19T20:19:44.924Z,4.88
2023-04-19T20:24:48.474Z,4.84
2023-04-19T20:29:50.383Z,4.73
2023-04-19T20:34:52.816Z,4.83
2023-04-19T20:39:58.403Z,4.75
2023-04-19T20:45:00.782Z,4.74
2023-04-19T20:50:03.125Z,4.78
2023-04-19T20:55:07.506Z,4.80
2023-04-19T21:00:10.966Z,4.67
2023-04-19T21:05:12.840Z,4.96
2023-04-19T21:10:17.251Z,4.86
2023-04-19T21:15:19.611Z,4.86
2023-04-19T21:20:21.697Z,4.78
2023-04-19T21:25:25.039Z,4.70
2023-04-19T21:30:27.271Z,4.69
2023-04-19T21:35:29.246Z,4.66
2023-04-19T21:40:32.563Z,4.77
2023-04-19T21:45:34.548Z,4.98
2023-04-19T21:50:36.572Z,4.93
2023-04-19T21:55:39.939Z,4.80
2023-04-19T22:00:42.251Z,4.73
2023-04-19T22:05:46.107Z,4.68
2023-04-19T22:10:50.482Z,4.66
2023-04-19T22:15:53.003Z,4.70
2023-04-19T22:20:55.666Z,4.89
2023-04-19T22:26:00.131Z,4.93
2023-04-19T22:31:02.244Z,4.81
2023-04-19T22:36:04.775Z,4.73
2023-04-19T22:41:08.060Z,4.72
2023-04-19T22:46:10.048Z,4.62
2023-04-19T22:51:12.094Z,4.67
2023-04-19T22:56:15.428Z,4.72
2023-04-19T23:01:17.432Z,4.67
2023-04-19T23:06:19.455Z,4.70
2023-04-19T23:11:25.021Z,4.61
2023-04-19T23:16:28.754Z,4.73
2023-04-19T23:21:31.548Z,4.57
2023-04-19T23:26:34.832Z,4.56
2023-04-19T23:31:36.876Z,4.54
2023-04-19T23:36:38.865Z,4.55
2023-04-19T23:41:43.470Z,4.52
2023-04-19T23:46:45.661Z,4.54
2023-04-19T23:51:50.129Z,4.51
2023-04-19T23:56:54.315Z,4.47
